createdAt,value
2023-05-14T00:00:24.521Z,69.55
2023-05-14T00:03:11.399Z,69.62
2023-05-14T00:05:38.204Z,68.88
2023-05-14T00:08:05.587Z,68.86
2023-05-14T00:10:32.362Z,69.01
2023-05-14T00:12:58.987Z,69.06
2023-05-14T00:15:25.666Z,69.30
2023-05-14T00:17:52.396Z,69.56
2023-05-14T00:20:19.075Z,69.93
2023-05-14T00:22:45.526Z,69.63
2023-05-14T00:25:12.245Z,69.63
2023-05-14T00:27:38.780Z,69.69
2023-05-14T00:30:08.504Z,69.31
2023-05-14T00:32:35.219Z,69.42
2023-05-14T00:35:03.724Z,70.00
2023-05-14T00:37:30.407Z,71.25
2023-05-14T00:39:57.737Z,70.79
2023-05-14T00:42:24.361Z,70.49
2023-05-14T00:44:50.846Z,69.95
2023-05-14T00:47:17.619Z,70.01
2023-05-14T00:49:44.979Z,70.69
2023-05-14T00:52:11.731Z,71.85
2023-05-14T00:54:38.490Z,71.86
2023-05-14T00:57:06.238Z,70.74
2023-05-14T00:59:33.085Z,70.08
2023-05-14T01:01:59.762Z,70.17
2023-05-14T01:04:26.548Z,70.62
2023-05-14T01:07:16.849Z,69.91
2023-05-14T01:09:54.318Z,70.42
2023-05-14T01:12:37.780Z,71.40
2023-05-14T01:15:10.900Z,70.32
2023-05-14T01:17:42.954Z,70.20
2023-05-14T01:20:10.152Z,70.30
2023-05-14T01:22:37.309Z,70.40
2023-05-14T01:25:05.384Z,70.26
2023-05-14T01:27:47.108Z,70.44
2023-05-14T01:30:30.495Z,70.13
2023-05-14T01:32:59.926Z,70.13
2023-05-14T01:35:28.323Z,70.89
2023-05-14T01:37:56.870Z,71.07
2023-05-14T01:40:24.938Z,72.22
2023-05-14T01:42:52.852Z,71.72
2023-05-14T01:45:20.536Z,71.25
2023-05-14T01:47:47.482Z,71.05
2023-05-14T01:50:13.981Z,71.16
2023-05-14T01:52:40.835Z,71.17
2023-05-14T01:55:08.015Z,70.74
2023-05-14T01:57:34.574Z,70.89
2023-05-14T02:00:01.474Z,71.11
2023-05-14T02:02:29.118Z,70.78
2023-05-14T02:04:55.702Z,70.89
2023-05-14T02:07:22.284Z,70.82
2023-05-14T02:09:48.919Z,70.98
2023-05-14T02:12:15.373Z,70.80
2023-05-14T02:14:42.007Z,70.79
2023-05-14T02:17:08.844Z,70.68
2023-05-14T02:19:35.438Z,71.22
2023-05-14T02:22:01.994Z,71.02
2023-05-14T02:24:28.641Z,71.31
2023-05-14T02:26:55.166Z,71.45
2023-05-14T02:29:22.816Z,71.21
2023-05-14T02:31:49.844Z,71.39
2023-05-14T02:34:16.641Z,71.38
2023-05-14T02:36:43.349Z,71.21
2023-05-14T02:39:10.135Z,71.27
2023-05-14T02:41:37.055Z,71.18
2023-05-14T02:44:03.705Z,71.12
2023-05-14T02:46:31.685Z,71.36
2023-05-14T02:48:58.380Z,71.07
2023-05-14T02:51:25.907Z,71.43
2023-05-14T02:53:55.339Z,72.28
2023-05-14T02:56:21.982Z,72.18
2023-05-14T02:58:48.477Z,72.66
2023-05-14T03:01:15.153Z,73.17
2023-05-14T03:03:42.273Z,72.78
2023-05-14T03:06:09.187Z,72.25
2023-05-14T03:08:35.970Z,72.02
2023-05-14T03:11:02.568Z,72.66
2023-05-14T03:13:29.150Z,72.62
2023-05-14T03:15:56.405Z,72.59
2023-05-14T03:18:23.154Z,72.50
2023-05-14T03:20:50.045Z,72.29
2023-05-14T03:23:16.606Z,72.26
2023-05-14T03:25:43.058Z,72.28
2023-05-14T03:28:09.744Z,72.69
2023-05-14T03:30:36.369Z,72.72
2023-05-14T03:33:03.612Z,72.82
2023-05-14T03:35:30.890Z,73.41
2023-05-14T03:37:58.636Z,73.03
2023-05-14T03:40:25.755Z,73.39
2023-05-14T03:42:52.503Z,74.23
2023-05-14T03:45:19.460Z,74.52
2023-05-14T03:47:45.942Z,75.05
2023-05-14T03:50:12.399Z,75.15
2023-05-14T03:52:39.898Z,75.60
2023-05-14T03:55:06.796Z,75.10
2023-05-14T03:57:33.332Z,75.27
2023-05-14T03:59:59.882Z,75.93
2023-05-14T04:02:26.490Z,75.94
2023-05-14T04:04:54.098Z,76.24
2023-05-14T04:07:20.925Z,77.07
2023-05-14T04:09:47.553Z,77.21
2023-05-14T04:12:14.055Z,77.75
2023-05-14T04:14:40.884Z,78.06
2023-05-14T04:17:07.579Z,77.92
2023-05-14T04:19:34.330Z,78.05
2023-05-14T04:22:00.960Z,77.99
2023-05-14T04:24:27.529Z,77.94
2023-05-14T04:26:54.251Z,77.65
2023-05-14T04:29:20.695Z,77.90
2023-05-14T04:31:49.004Z,77.92
2023-05-14T04:34:15.615Z,77.96
2023-05-14T04:36:42.077Z,78.02
2023-05-14T04:39:14.758Z,77.72
2023-05-14T04:41:42.098Z,77.54
2023-05-14T04:44:08.568Z,77.53
2023-05-14T04:46:35.333Z,76.40
2023-05-14T04:49:02.028Z,76.60
2023-05-14T04:51:28.499Z,76.36
2023-05-14T04:53:54.927Z,76.68
2023-05-14T04:56:21.608Z,76.00
2023-05-14T04:58:56.173Z,75.86
2023-05-14T05:01:23.202Z,76.13
2023-05-14T05:03:50.272Z,76.43
2023-05-14T05:06:16.810Z,75.82
2023-05-14T05:08:43.496Z,75.50
2023-05-14T05:11:10.023Z,75.14
2023-05-14T05:13:36.504Z,75.13
2023-05-14T05:16:03.161Z,74.81
2023-05-14T05:18:29.689Z,75.00
2023-05-14T05:20:56.309Z,74.96
2023-05-14T05:23:23.103Z,74.42
2023-05-14T05:25:50.453Z,74.12
2023-05-14T05:28:20.031Z,74.24
2023-05-14T05:30:46.657Z,74.05
2023-05-14T05:33:13.470Z,73.74
2023-05-14T05:35:40.226Z,73.25
2023-05-14T05:38:06.897Z,72.93
2023-05-14T05:40:33.389Z,73.17
2023-05-14T05:43:00.099Z,73.09
2023-05-14T05:45:26.677Z,72.42
2023-05-14T05:47:53.191Z,71.98
2023-05-14T05:50:20.233Z,71.50
2023-05-14T05:52:46.935Z,71.02
2023-05-14T05:55:13.407Z,71.69
2023-05-14T05:57:39.946Z,70.61
2023-05-14T06:00:12.953Z,70.27
2023-05-14T06:02:41.021Z,70.52
2023-05-14T06:05:09.166Z,69.95
2023-05-14T06:07:35.872Z,69.09
2023-05-14T06:10:02.896Z,68.85
2023-05-14T06:12:29.524Z,67.18
2023-05-14T06:14:57.267Z,67.13
2023-05-14T06:17:24.840Z,66.51
2023-05-14T06:19:51.819Z,66.64
2023-05-14T06:22:19.148Z,66.76
2023-05-14T06:24:45.871Z,66.02
2023-05-14T06:27:12.437Z,65.93
2023-05-14T06:29:39.132Z,66.34
2023-05-14T06:32:06.205Z,66.27
2023-05-14T06:34:33.054Z,65.07
2023-05-14T06:37:02.150Z,64.61
2023-05-14T06:39:28.724Z,63.89
2023-05-14T06:41:55.200Z,63.13
2023-05-14T06:44:23.292Z,62.39
2023-05-14T06:46:49.885Z,62.24
2023-05-14T06:49:16.472Z,62.20
2023-05-14T06:51:43.218Z,60.17
2023-05-14T06:54:09.844Z,57.81
2023-05-14T06:56:36.352Z,56.06
2023-05-14T06:59:02.885Z,56.61
2023-05-14T07:01:34.563Z,56.72
2023-05-14T07:04:01.178Z,57.23
2023-05-14T07:06:27.822Z,55.66
2023-05-14T07:08:54.579Z,56.21
2023-05-14T07:11:21.598Z,55.18
2023-05-14T07:13:48.164Z,53.17
2023-05-14T07:16:14.745Z,49.23
2023-05-14T07:18:41.359Z,51.62
2023-05-14T07:21:07.921Z,51.90
2023-05-14T07:23:36.125Z,51.23
2023-05-14T07:26:06.450Z,49.84
2023-05-14T07:28:34.139Z,50.15
2023-05-14T07:31:00.884Z,48.37
2023-05-14T07:33:27.509Z,48.65
2023-05-14T07:35:54.151Z,47.03
2023-05-14T07:38:20.903Z,48.43
2023-05-14T07:40:47.578Z,47.91
2023-05-14T07:43:14.103Z,46.26
2023-05-14T07:45:40.687Z,45.85
2023-05-14T07:48:07.451Z,45.57
2023-05-14T07:50:34.360Z,45.27
2023-05-14T07:53:01.111Z,45.59
2023-05-14T07:55:27.656Z,45.09
2023-05-14T07:57:54.558Z,45.40
2023-05-14T08:00:21.549Z,44.08
2023-05-14T08:02:48.795Z,44.52
2023-05-14T08:05:16.109Z,44.10
2023-05-14T08:07:42.781Z,42.84
2023-05-14T08:10:09.683Z,43.72
2023-05-14T08:12:36.208Z,43.17
2023-05-14T08:15:03.040Z,41.26
2023-05-14T08:17:29.767Z,40.22
2023-05-14T08:19:56.336Z,39.91
2023-05-14T08:22:22.772Z,40.19
2023-05-14T08:24:49.617Z,39.80
2023-05-14T08:27:16.578Z,40.47
2023-05-14T08:29:43.046Z,39.73
2023-05-14T08:32:21.992Z,38.95
2023-05-14T08:34:50.107Z,38.91
2023-05-14T08:37:16.642Z,38.71
2023-05-14T08:39:43.218Z,38.03
2023-05-14T08:42:12.275Z,38.57
2023-05-14T08:44:51.802Z,37.93
2023-05-14T08:47:21.153Z,37.77
2023-05-14T08:49:54.441Z,36.87
2023-05-14T08:52:22.289Z,37.49
2023-05-14T08:54:53.073Z,37.61
2023-05-14T08:57:23.215Z,37.96
2023-05-14T08:59:50.695Z,37.76
2023-05-14T09:02:22.235Z,37.55
2023-05-14T09:04:57.097Z,38.04
2023-05-14T09:07:24.306Z,38.03
2023-05-14T09:09:52.147Z,38.52
2023-05-14T09:12:19.571Z,38.06
2023-05-14T09:14:47.596Z,37.79
2023-05-14T09:17:16.131Z,37.55
2023-05-14T09:19:43.680Z,36.13
2023-05-14T09:22:15.002Z,35.92
2023-05-14T09:24:42.408Z,35.49
2023-05-14T09:27:15.240Z,35.54
2023-05-14T09:29:42.924Z,34.52
2023-05-14T09:32:10.282Z,34.60
2023-05-14T09:34:37.506Z,34.63
2023-05-14T09:37:06.052Z,34.44
2023-05-14T09:39:35.544Z,34.40
2023-05-14T09:42:02.457Z,34.04
2023-05-14T09:44:29.281Z,33.89
2023-05-14T09:46:55.993Z,33.71
2023-05-14T09:49:22.666Z,33.18
2023-05-14T09:51:50.083Z,33.56
2023-05-14T09:54:16.977Z,34.01
2023-05-14T09:56:43.961Z,34.19
2023-05-14T09:59:10.641Z,34.27
2023-05-14T10:01:37.901Z,33.07
2023-05-14T10:04:09.321Z,33.54
2023-05-14T10:06:38.068Z,33.73
2023-05-14T10:09:16.337Z,33.10
2023-05-14T10:11:52.651Z,33.63
2023-05-14T10:14:52.976Z,33.26
2023-05-14T10:17:21.569Z,33.13
2023-05-14T10:19:54.244Z,32.96
2023-05-14T10:22:27.168Z,33.55
2023-05-14T10:24:55.662Z,33.41
2023-05-14T10:27:25.583Z,33.65
2023-05-14T10:29:54.182Z,33.82
2023-05-14T10:32:25.279Z,33.62
2023-05-14T10:34:52.586Z,33.83
2023-05-14T10:37:25.305Z,33.82
2023-05-14T10:39:58.801Z,33.79
2023-05-14T10:42:27.234Z,33.73
2023-05-14T10:44:57.956Z,34.31
2023-05-14T10:47:38.180Z,34.72
2023-05-14T10:50:08.860Z,34.18
2023-05-14T10:52:36.287Z,33.70
2023-05-14T10:55:12.695Z,32.72
2023-05-14T10:57:42.058Z,32.82
2023-05-14T11:00:10.077Z,31.79
2023-05-14T11:02:39.058Z,31.01
2023-05-14T11:05:15.042Z,31.34
2023-05-14T11:07:47.779Z,31.15
2023-05-14T11:10:19.377Z,31.45
2023-05-14T11:12:48.737Z,31.41
2023-05-14T11:15:18.313Z,31.33
2023-05-14T11:17:46.387Z,31.62
2023-05-14T11:20:13.859Z,31.51
2023-05-14T11:22:42.598Z,31.04
2023-05-14T11:25:10.662Z,31.10
2023-05-14T11:27:38.529Z,31.15
2023-05-14T11:30:11.566Z,31.21
2023-05-14T11:32:38.246Z,30.84
2023-05-14T11:35:05.444Z,31.16
2023-05-14T11:37:32.125Z,31.52
2023-05-14T11:39:59.868Z,31.78
2023-05-14T11:42:26.523Z,32.02
2023-05-14T11:44:53.499Z,32.36
2023-05-14T11:47:21.403Z,32.72
2023-05-14T11:49:48.969Z,32.26
2023-05-14T11:52:18.585Z,32.00
2023-05-14T11:54:45.798Z,31.84
2023-05-14T11:57:15.613Z,31.89
2023-05-14T11:59:42.946Z,32.07
2023-05-14T12:02:14.509Z,32.68
2023-05-14T12:04:42.312Z,32.95
2023-05-14T12:07:14.054Z,32.66
2023-05-14T12:09:48.443Z,32.23
2023-05-14T12:12:19.215Z,32.48
2023-05-14T12:14:46.216Z,31.52
2023-05-14T12:17:16.819Z,32.10
2023-05-14T12:19:45.101Z,32.16
2023-05-14T12:22:14.834Z,32.11
2023-05-14T12:24:43.393Z,32.08
2023-05-14T12:27:10.247Z,31.91
2023-05-14T12:29:40.702Z,31.64
2023-05-14T12:32:08.905Z,32.02
2023-05-14T12:34:37.490Z,32.06
2023-05-14T12:37:05.930Z,32.19
2023-05-14T12:39:34.210Z,32.36
2023-05-14T12:42:01.632Z,32.41
2023-05-14T12:44:28.484Z,32.10
2023-05-14T12:46:55.643Z,32.11
2023-05-14T12:49:22.284Z,32.22
2023-05-14T12:51:48.801Z,32.10
2023-05-14T12:54:16.944Z,31.88
2023-05-14T12:56:43.479Z,31.80
2023-05-14T12:59:10.127Z,31.33
2023-05-14T13:01:37.721Z,31.42
2023-05-14T13:04:05.121Z,31.21
2023-05-14T13:06:32.143Z,31.23
2023-05-14T13:09:01.185Z,31.83
2023-05-14T13:11:29.677Z,31.23
2023-05-14T13:13:56.199Z,31.53
2023-05-14T13:16:22.873Z,31.52
2023-05-14T13:18:49.525Z,31.36
2023-05-14T13:21:16.130Z,30.81
2023-05-14T13:23:42.991Z,31.30
2023-05-14T13:26:09.610Z,31.35
2023-05-14T13:28:36.160Z,31.28
2023-05-14T13:31:06.339Z,31.30
2023-05-14T13:33:36.678Z,31.21
2023-05-14T13:36:03.965Z,31.41
2023-05-14T13:38:30.613Z,31.29
2023-05-14T13:41:01.265Z,31.07
2023-05-14T13:43:32.186Z,31.05
2023-05-14T13:46:00.450Z,31.27
2023-05-14T13:48:27.332Z,31.52
2023-05-14T13:50:54.419Z,31.81
2023-05-14T13:53:22.830Z,31.83
2023-05-14T13:55:50.188Z,31.76
2023-05-14T13:58:16.858Z,31.15
2023-05-14T14:00:43.380Z,30.82
2023-05-14T14:03:10.022Z,30.82
2023-05-14T14:05:37.263Z,31.14
2023-05-14T14:08:13.077Z,31.34
2023-05-14T14:10:49.257Z,31.27
2023-05-14T14:13:15.815Z,30.53
2023-05-14T14:15:43.164Z,30.76
2023-05-14T14:18:09.949Z,31.06
2023-05-14T14:20:36.551Z,30.73
2023-05-14T14:23:03.291Z,30.63
2023-05-14T14:25:30.074Z,30.74
2023-05-14T14:27:56.559Z,30.61
2023-05-14T14:30:23.128Z,30.67
2023-05-14T14:32:50.265Z,30.84
2023-05-14T14:35:18.526Z,30.80
2023-05-14T14:37:48.704Z,30.95
2023-05-14T14:40:16.240Z,31.01
2023-05-14T14:42:43.360Z,31.17
2023-05-14T14:45:10.791Z,31.29
2023-05-14T14:47:37.501Z,30.75
2023-05-14T14:50:04.930Z,30.65
2023-05-14T14:52:31.518Z,30.61
2023-05-14T14:54:58.260Z,30.33
2023-05-14T14:57:26.158Z,30.56
2023-05-14T14:59:52.836Z,30.65
2023-05-14T15:02:19.540Z,30.87
2023-05-14T15:04:46.167Z,30.89
2023-05-14T15:07:13.122Z,31.02
2023-05-14T15:09:39.699Z,31.05
2023-05-14T15:12:08.197Z,30.72
2023-05-14T15:14:34.740Z,30.84
2023-05-14T15:17:01.478Z,30.96
2023-05-14T15:19:28.864Z,30.90
2023-05-14T15:21:55.421Z,31.15
2023-05-14T15:24:23.540Z,31.40
2023-05-14T15:26:52.028Z,31.58
2023-05-14T15:29:20.253Z,31.65
2023-05-14T15:31:47.680Z,31.88
2023-05-14T15:34:14.567Z,32.22
2023-05-14T15:36:41.425Z,32.17
2023-05-14T15:39:09.749Z,32.36
2023-05-14T15:41:36.741Z,32.59
2023-05-14T15:44:03.504Z,32.74
2023-05-14T15:46:30.479Z,32.80
2023-05-14T15:48:57.415Z,32.97
2023-05-14T15:51:24.103Z,32.84
2023-05-14T15:53:53.482Z,32.98
2023-05-14T15:56:22.174Z,33.06
2023-05-14T15:58:49.204Z,33.32
2023-05-14T16:01:16.109Z,33.48
2023-05-14T16:03:42.786Z,33.53
2023-05-14T16:06:09.720Z,33.41
2023-05-14T16:08:36.685Z,33.09
2023-05-14T16:11:03.394Z,33.23
2023-05-14T16:13:30.268Z,33.65
2023-05-14T16:15:58.907Z,33.35
2023-05-14T16:18:25.728Z,33.36
2023-05-14T16:20:52.966Z,33.41
2023-05-14T16:23:19.654Z,33.55
2023-05-14T16:25:46.239Z,33.82
2023-05-14T16:28:13.140Z,33.90
2023-05-14T16:30:39.773Z,33.81
2023-05-14T16:33:06.415Z,33.90
2023-05-14T16:35:33.282Z,33.90
2023-05-14T16:38:01.080Z,33.92
2023-05-14T16:40:27.677Z,34.03
2023-05-14T16:42:54.133Z,34.04
2023-05-14T16:45:20.750Z,34.21
2023-05-14T16:47:47.306Z,34.31
2023-05-14T16:50:13.855Z,34.51
2023-05-14T16:52:40.612Z,34.45
2023-05-14T16:55:07.600Z,34.32
2023-05-14T16:57:34.567Z,34.47
2023-05-14T17:00:04.410Z,34.71
2023-05-14T17:02:31.996Z,34.74
2023-05-14T17:04:58.903Z,34.81
2023-05-14T17:07:25.830Z,34.92
2023-05-14T17:09:52.489Z,34.98
2023-05-14T17:12:18.964Z,35.14
2023-05-14T17:14:45.610Z,35.48
2023-05-14T17:17:12.086Z,35.81
2023-05-14T17:19:38.578Z,35.89
2023-05-14T17:22:05.481Z,35.89
2023-05-14T17:24:32.280Z,36.06
2023-05-14T17:26:58.943Z,36.23
2023-05-14T17:29:25.774Z,36.45
2023-05-14T17:31:52.547Z,36.60
2023-05-14T17:34:19.223Z,36.82
2023-05-14T17:36:45.898Z,37.05
2023-05-14T17:39:12.521Z,37.25
2023-05-14T17:41:41.111Z,37.41
2023-05-14T17:44:09.484Z,37.51
2023-05-14T17:46:37.494Z,37.71
2023-05-14T17:49:04.239Z,38.10
2023-05-14T17:51:30.974Z,38.41
2023-05-14T17:53:58.515Z,38.62
2023-05-14T17:56:25.394Z,38.92
2023-05-14T17:58:55.181Z,39.52
2023-05-14T18:01:21.733Z,39.85
2023-05-14T18:03:48.327Z,40.83
2023-05-14T18:06:16.151Z,41.03
2023-05-14T18:08:42.768Z,42.11
2023-05-14T18:11:09.276Z,42.22
2023-05-14T18:13:35.832Z,42.69
2023-05-14T18:16:03.449Z,43.21
2023-05-14T18:18:30.758Z,43.73
2023-05-14T18:20:57.516Z,43.79
2023-05-14T18:23:24.041Z,44.20
2023-05-14T18:25:50.616Z,44.37
2023-05-14T18:28:18.323Z,44.70
2023-05-14T18:30:44.934Z,44.84
2023-05-14T18:33:11.526Z,45.26
2023-05-14T18:35:38.224Z,45.34
2023-05-14T18:38:07.397Z,45.68
2023-05-14T18:40:34.446Z,45.84
2023-05-14T18:43:01.183Z,46.33
2023-05-14T18:45:27.952Z,47.02
2023-05-14T18:47:54.925Z,47.32
2023-05-14T18:50:21.569Z,47.73
2023-05-14T18:52:48.061Z,47.84
2023-05-14T18:55:14.738Z,48.42
2023-05-14T18:57:41.280Z,48.84
2023-05-14T19:00:08.341Z,49.02
2023-05-14T19:02:35.470Z,48.82
2023-05-14T19:05:02.396Z,48.87
2023-05-14T19:07:30.343Z,49.39
2023-05-14T19:09:56.784Z,49.94
2023-05-14T19:12:23.471Z,50.41
2023-05-14T19:14:49.981Z,50.12
2023-05-14T19:17:18.348Z,50.68
2023-05-14T19:19:45.930Z,50.43
2023-05-14T19:22:12.426Z,50.88
2023-05-14T19:24:39.572Z,50.88
2023-05-14T19:27:06.310Z,51.53
2023-05-14T19:29:33.264Z,51.65
2023-05-14T19:31:59.840Z,52.36
2023-05-14T19:34:26.591Z,51.61
2023-05-14T19:36:53.182Z,51.84
2023-05-14T19:39:19.747Z,51.87
2023-05-14T19:41:46.561Z,52.30
2023-05-14T19:44:13.096Z,52.49
2023-05-14T19:46:40.219Z,52.60
2023-05-14T19:49:06.794Z,52.96
2023-05-14T19:51:33.289Z,53.19
2023-05-14T19:53:59.844Z,53.57
2023-05-14T19:56:29.065Z,53.75
2023-05-14T19:58:55.720Z,53.66
2023-05-14T20:01:22.228Z,54.16
2023-05-14T20:03:48.930Z,54.11
2023-05-14T20:06:16.830Z,54.43
2023-05-14T20:08:44.778Z,54.39
2023-05-14T20:11:11.429Z,55.37
2023-05-14T20:13:37.910Z,55.26
2023-05-14T20:16:05.179Z,55.68
2023-05-14T20:18:32.146Z,55.53
2023-05-14T20:20:58.749Z,55.68
2023-05-14T20:23:25.360Z,55.93
2023-05-14T20:25:52.473Z,55.79
2023-05-14T20:28:19.002Z,55.80
2023-05-14T20:30:45.667Z,56.18
2023-05-14T20:33:13.186Z,56.24
2023-05-14T20:35:43.034Z,56.67
2023-05-14T20:38:12.104Z,56.33
2023-05-14T20:40:38.972Z,56.85
2023-05-14T20:43:05.696Z,57.19
2023-05-14T20:45:32.232Z,57.20
2023-05-14T20:47:58.880Z,57.39
2023-05-14T20:50:27.224Z,57.81
2023-05-14T20:52:54.656Z,57.92
2023-05-14T20:55:21.273Z,57.46
2023-05-14T20:57:49.048Z,56.43
2023-05-14T21:00:15.938Z,56.59
2023-05-14T21:02:42.613Z,56.15
2023-05-14T21:05:09.247Z,55.70
2023-05-14T21:07:36.730Z,55.84
2023-05-14T21:10:03.813Z,55.61
2023-05-14T21:12:30.367Z,55.82
2023-05-14T21:14:57.118Z,55.10
2023-05-14T21:17:24.686Z,54.79
2023-05-14T21:19:51.237Z,54.67
2023-05-14T21:22:17.836Z,54.29
2023-05-14T21:24:44.674Z,54.48
2023-05-14T21:27:11.252Z,54.33
2023-05-14T21:29:39.026Z,54.39
2023-05-14T21:32:05.967Z,54.14
2023-05-14T21:34:32.766Z,53.83
2023-05-14T21:36:59.290Z,53.98
2023-05-14T21:39:26.036Z,53.59
2023-05-14T21:41:52.692Z,53.58
2023-05-14T21:44:21.338Z,53.64
2023-05-14T21:46:48.473Z,53.68
2023-05-14T21:49:15.085Z,53.60
2023-05-14T21:51:42.285Z,53.71
2023-05-14T21:54:09.136Z,53.52
2023-05-14T21:56:36.697Z,53.72
2023-05-14T21:59:03.274Z,53.58
2023-05-14T22:01:30.512Z,53.65
2023-05-14T22:03:57.991Z,53.63
2023-05-14T22:06:24.715Z,53.32
2023-05-14T22:08:51.368Z,53.60
2023-05-14T22:11:17.993Z,53.74
2023-05-14T22:13:44.515Z,53.52
2023-05-14T22:16:13.354Z,53.86
2023-05-14T22:18:41.004Z,53.90
2023-05-14T22:21:07.722Z,53.79
2023-05-14T22:23:34.404Z,53.55
2023-05-14T22:26:00.940Z,54.25
2023-05-14T22:28:27.524Z,53.95
2023-05-14T22:30:55.812Z,53.89
2023-05-14T22:33:22.464Z,53.80
2023-05-14T22:35:48.927Z,53.50
2023-05-14T22:38:15.402Z,53.64
2023-05-14T22:40:42.054Z,53.72
2023-05-14T22:43:08.747Z,53.71
2023-05-14T22:45:35.407Z,53.51
2023-05-14T22:48:02.150Z,53.15
2023-05-14T22:50:28.655Z,53.16
2023-05-14T22:52:55.180Z,52.90
2023-05-14T22:55:21.946Z,52.87
2023-05-14T22:57:48.513Z,53.01
2023-05-14T23:00:15.601Z,52.90
2023-05-14T23:02:42.247Z,52.82
2023-05-14T23:05:09.109Z,52.82
2023-05-14T23:07:35.668Z,52.91
2023-05-14T23:10:02.229Z,52.67
2023-05-14T23:12:28.863Z,52.71
2023-05-14T23:14:55.409Z,52.54
2023-05-14T23:17:22.198Z,52.73
2023-05-14T23:19:48.771Z,52.46
2023-05-14T23:22:15.621Z,52.38
2023-05-14T23:24:42.209Z,52.20
2023-05-14T23:27:08.868Z,52.37
2023-05-14T23:29:35.476Z,52.16
2023-05-14T23:32:02.170Z,52.24
2023-05-14T23:34:28.753Z,52.05
2023-05-14T23:36:55.510Z,52.26
2023-05-14T23:39:22.126Z,52.04
2023-05-14T23:41:48.596Z,52.12
2023-05-14T23:44:15.418Z,52.00
2023-05-14T23:46:42.072Z,51.99
2023-05-14T23:49:08.652Z,52.11
2023-05-14T23:51:36.314Z,51.92
2023-05-14T23:54:03.217Z,52.02
2023-05-14T23:56:29.794Z,51.98
2023-05-14T23:58:56.447Z,51.90
